sensor_id;sensor_type;location;lat;lon;timestamp;temperature;humidity
20288;DHT22;10303;51.960;8.372;2023-06-22T00:00:50;22.70;96.10
20288;DHT22;10303;51.960;8.372;2023-06-22T00:03:17;22.60;96.30
20288;DHT22;10303;51.960;8.372;2023-06-22T00:05:45;22.60;96.70
20288;DHT22;10303;51.960;8.372;2023-06-22T00:08:15;22.60;97.30
20288;DHT22;10303;51.960;8.372;2023-06-22T00:10:42;22.60;97.20
20288;DHT22;10303;51.960;8.372;2023-06-22T00:13:10;22.50;97.30
20288;DHT22;10303;51.960;8.372;2023-06-22T00:15:37;22.50;97.50
20288;DHT22;10303;51.960;8.372;2023-06-22T00:18:06;22.40;97.70
20288;DHT22;10303;51.960;8.372;2023-06-22T00:20:33;22.40;98.00
20288;DHT22;10303;51.960;8.372;2023-06-22T00:23:03;22.40;98.00
20288;DHT22;10303;51.960;8.372;2023-06-22T00:25:40;22.40;98.20
20288;DHT22;10303;51.960;8.372;2023-06-22T00:28:06;22.40;98.90
20288;DHT22;10303;51.960;8.372;2023-06-22T00:30:35;22.40;98.60
20288;DHT22;10303;51.960;8.372;2023-06-22T00:33:02;22.30;98.70
20288;DHT22;10303;51.960;8.372;2023-06-22T00:35:28;22.30;98.90
20288;DHT22;10303;51.960;8.372;2023-06-22T00:37:58;22.30;99.00
20288;DHT22;10303;51.960;8.372;2023-06-22T00:40:31;22.30;99.20
20288;DHT22;10303;51.960;8.372;2023-06-22T00:42:58;22.30;99.40
20288;DHT22;10303;51.960;8.372;2023-06-22T00:45:25;22.30;99.60
20288;DHT22;10303;51.960;8.372;2023-06-22T00:47:53;22.30;99.70
20288;DHT22;10303;51.960;8.372;2023-06-22T00:50:23;22.20;99.80
20288;DHT22;10303;51.960;8.372;2023-06-22T00:52:58;22.20;99.90
20288;DHT22;10303;51.960;8.372;2023-06-22T00:55:25;22.20;99.90
20288;DHT22;10303;51.960;8.372;2023-06-22T00:57:52;22.20;99.90
20288;DHT22;10303;51.960;8.372;2023-06-22T01:00:25;22.20;99.90
20288;DHT22;10303;51.960;8.372;2023-06-22T01:02:53;22.20;99.90
20288;DHT22;10303;51.960;8.372;2023-06-22T01:05:20;22.20;99.90
20288;DHT22;10303;51.960;8.372;2023-06-22T01:11:35;22.10;99.90
20288;DHT22;10303;51.960;8.372;2023-06-22T01:16:51;22.10;99.90
20288;DHT22;10303;51.960;8.372;2023-06-22T01:19:44;22.10;99.90
20288;DHT22;10303;51.960;8.372;2023-06-22T01:22:20;22.00;99.90
20288;DHT22;10303;51.960;8.372;2023-06-22T01:30:29;22.00;99.90
20288;DHT22;10303;51.960;8.372;2023-06-22T01:33:00;22.00;99.90
20288;DHT22;10303;51.960;8.372;2023-06-22T01:35:29;21.90;99.90
20288;DHT22;10303;51.960;8.372;2023-06-22T01:37:56;21.90;99.90
20288;DHT22;10303;51.960;8.372;2023-06-22T01:40:23;21.90;99.90
20288;DHT22;10303;51.960;8.372;2023-06-22T01:42:51;21.90;99.90
20288;DHT22;10303;51.960;8.372;2023-06-22T01:45:17;21.90;99.90
20288;DHT22;10303;51.960;8.372;2023-06-22T01:47:44;21.90;99.90
20288;DHT22;10303;51.960;8.372;2023-06-22T01:50:11;21.90;99.90
20288;DHT22;10303;51.960;8.372;2023-06-22T01:52:37;21.80;99.90
20288;DHT22;10303;51.960;8.372;2023-06-22T01:55:04;21.80;99.90
20288;DHT22;10303;51.960;8.372;2023-06-22T01:57:31;21.80;99.90
20288;DHT22;10303;51.960;8.372;2023-06-22T02:00:23;21.80;99.90
20288;DHT22;10303;51.960;8.372;2023-06-22T02:02:59;21.80;99.90
20288;DHT22;10303;51.960;8.372;2023-06-22T02:05:36;21.80;99.90
20288;DHT22;10303;51.960;8.372;2023-06-22T02:08:20;21.80;99.90
20288;DHT22;10303;51.960;8.372;2023-06-22T02:10:50;21.80;99.90
20288;DHT22;10303;51.960;8.372;2023-06-22T02:13:20;21.70;99.90
20288;DHT22;10303;51.960;8.372;2023-06-22T02:15:47;21.80;99.90
20288;DHT22;10303;51.960;8.372;2023-06-22T02:18:14;21.70;99.90
20288;DHT22;10303;51.960;8.372;2023-06-22T02:20:40;21.70;99.90
20288;DHT22;10303;51.960;8.372;2023-06-22T02:23:06;21.70;99.90
20288;DHT22;10303;51.960;8.372;2023-06-22T02:25:35;21.70;99.90
20288;DHT22;10303;51.960;8.372;2023-06-22T02:28:02;21.70;99.90
20288;DHT22;10303;51.960;8.372;2023-06-22T02:30:28;21.70;99.90
20288;DHT22;10303;51.960;8.372;2023-06-22T02:32:54;21.70;99.90
20288;DHT22;10303;51.960;8.372;2023-06-22T02:35:28;21.70;99.90
20288;DHT22;10303;51.960;8.372;2023-06-22T02:38:00;21.60;99.90
20288;DHT22;10303;51.960;8.372;2023-06-22T02:40:28;21.60;99.90
20288;DHT22;10303;51.960;8.372;2023-06-22T02:42:56;21.60;99.90
20288;DHT22;10303;51.960;8.372;2023-06-22T02:45:28;21.60;99.90
20288;DHT22;10303;51.960;8.372;2023-06-22T02:47:55;21.70;99.90
20288;DHT22;10303;51.960;8.372;2023-06-22T02:50:22;21.60;99.90
20288;DHT22;10303;51.960;8.372;2023-06-22T02:52:48;21.60;99.90
20288;DHT22;10303;51.960;8.372;2023-06-22T02:55:14;21.60;99.90
20288;DHT22;10303;51.960;8.372;2023-06-22T02:57:44;21.60;99.90
20288;DHT22;10303;51.960;8.372;2023-06-22T03:00:13;21.60;99.90
20288;DHT22;10303;51.960;8.372;2023-06-22T03:02:46;21.60;99.90
20288;DHT22;10303;51.960;8.372;2023-06-22T03:05:14;21.60;99.90
20288;DHT22;10303;51.960;8.372;2023-06-22T03:07:41;21.60;99.90
20288;DHT22;10303;51.960;8.372;2023-06-22T03:10:09;21.60;99.90
20288;DHT22;10303;51.960;8.372;2023-06-22T03:12:37;21.60;99.90
20288;DHT22;10303;51.960;8.372;2023-06-22T03:15:13;21.60;99.90
20288;DHT22;10303;51.960;8.372;2023-06-22T03:17:40;21.50;99.90
20288;DHT22;10303;51.960;8.372;2023-06-22T03:20:08;21.60;99.90
20288;DHT22;10303;51.960;8.372;2023-06-22T03:22:40;21.60;99.90
20288;DHT22;10303;51.960;8.372;2023-06-22T03:25:08;21.60;99.90
20288;DHT22;10303;51.960;8.372;2023-06-22T03:27:44;21.60;99.90
20288;DHT22;10303;51.960;8.372;2023-06-22T03:30:11;21.60;99.90
20288;DHT22;10303;51.960;8.372;2023-06-22T03:32:38;21.50;99.90
20288;DHT22;10303;51.960;8.372;2023-06-22T03:35:06;21.50;99.90
20288;DHT22;10303;51.960;8.372;2023-06-22T03:37:35;21.50;99.90
20288;DHT22;10303;51.960;8.372;2023-06-22T03:40:01;21.50;99.90
20288;DHT22;10303;51.960;8.372;2023-06-22T03:42:31;21.50;99.90
20288;DHT22;10303;51.960;8.372;2023-06-22T03:44:57;21.50;99.90
20288;DHT22;10303;51.960;8.372;2023-06-22T03:47:23;21.50;99.90
20288;DHT22;10303;51.960;8.372;2023-06-22T03:49:49;21.50;99.90
20288;DHT22;10303;51.960;8.372;2023-06-22T03:52:15;21.50;99.90
20288;DHT22;10303;51.960;8.372;2023-06-22T03:54:41;21.50;99.90
20288;DHT22;10303;51.960;8.372;2023-06-22T03:57:08;21.50;99.90
20288;DHT22;10303;51.960;8.372;2023-06-22T03:59:34;21.50;99.90
20288;DHT22;10303;51.960;8.372;2023-06-22T04:02:00;21.50;99.90
20288;DHT22;10303;51.960;8.372;2023-06-22T04:04:26;21.60;99.90
20288;DHT22;10303;51.960;8.372;2023-06-22T04:06:53;21.60;99.90
20288;DHT22;10303;51.960;8.372;2023-06-22T04:09:19;21.60;99.90
20288;DHT22;10303;51.960;8.372;2023-06-22T04:11:47;21.60;99.90
20288;DHT22;10303;51.960;8.372;2023-06-22T04:14:13;21.60;99.90
20288;DHT22;10303;51.960;8.372;2023-06-22T04:16:39;21.60;99.90
20288;DHT22;10303;51.960;8.372;2023-06-22T04:19:05;21.70;99.90
20288;DHT22;10303;51.960;8.372;2023-06-22T04:21:31;21.60;99.90
20288;DHT22;10303;51.960;8.372;2023-06-22T04:23:57;21.70;99.90
20288;DHT22;10303;51.960;8.372;2023-06-22T04:26:23;21.70;99.90
20288;DHT22;10303;51.960;8.372;2023-06-22T04:28:49;21.80;99.90
20288;DHT22;10303;51.960;8.372;2023-06-22T04:31:17;21.80;99.90
20288;DHT22;10303;51.960;8.372;2023-06-22T04:33:45;21.80;99.90
20288;DHT22;10303;51.960;8.372;2023-06-22T04:36:11;21.90;99.90
20288;DHT22;10303;51.960;8.372;2023-06-22T04:38:40;21.90;99.90
20288;DHT22;10303;51.960;8.372;2023-06-22T04:41:08;21.90;99.90
20288;DHT22;10303;51.960;8.372;2023-06-22T04:43:49;21.90;99.90
20288;DHT22;10303;51.960;8.372;2023-06-22T04:46:19;22.00;99.90
20288;DHT22;10303;51.960;8.372;2023-06-22T04:48:46;22.10;99.90
20288;DHT22;10303;51.960;8.372;2023-06-22T04:51:12;22.10;99.90
20288;DHT22;10303;51.960;8.372;2023-06-22T04:53:38;22.10;99.90
20288;DHT22;10303;51.960;8.372;2023-06-22T04:56:06;22.20;99.90
20288;DHT22;10303;51.960;8.372;2023-06-22T04:58:33;22.20;99.90
20288;DHT22;10303;51.960;8.372;2023-06-22T05:00:59;22.30;99.90
20288;DHT22;10303;51.960;8.372;2023-06-22T05:03:26;22.30;99.90
20288;DHT22;10303;51.960;8.372;2023-06-22T05:05:52;22.40;99.90
20288;DHT22;10303;51.960;8.372;2023-06-22T05:08:19;22.40;99.90
20288;DHT22;10303;51.960;8.372;2023-06-22T05:10:45;22.50;99.90
20288;DHT22;10303;51.960;8.372;2023-06-22T05:13:11;22.50;99.90
20288;DHT22;10303;51.960;8.372;2023-06-22T05:15:36;22.60;99.90
20288;DHT22;10303;51.960;8.372;2023-06-22T05:18:06;22.70;99.90
20288;DHT22;10303;51.960;8.372;2023-06-22T05:20:32;22.70;99.90
20288;DHT22;10303;51.960;8.372;2023-06-22T05:23:00;22.70;99.90
20288;DHT22;10303;51.960;8.372;2023-06-22T05:25:26;22.80;99.90
20288;DHT22;10303;51.960;8.372;2023-06-22T05:27:52;22.80;99.90
20288;DHT22;10303;51.960;8.372;2023-06-22T05:30:18;22.90;99.90
20288;DHT22;10303;51.960;8.372;2023-06-22T05:32:44;22.90;99.90
20288;DHT22;10303;51.960;8.372;2023-06-22T05:35:10;23.00;99.90
20288;DHT22;10303;51.960;8.372;2023-06-22T05:37:36;23.00;99.90
20288;DHT22;10303;51.960;8.372;2023-06-22T05:40:02;23.10;99.90
20288;DHT22;10303;51.960;8.372;2023-06-22T05:42:28;23.10;99.90
20288;DHT22;10303;51.960;8.372;2023-06-22T05:44:54;23.10;99.90
20288;DHT22;10303;51.960;8.372;2023-06-22T05:47:20;23.20;99.90
20288;DHT22;10303;51.960;8.372;2023-06-22T05:49:48;23.20;99.90
20288;DHT22;10303;51.960;8.372;2023-06-22T05:52:14;23.30;99.90
20288;DHT22;10303;51.960;8.372;2023-06-22T05:54:40;23.30;99.90
20288;DHT22;10303;51.960;8.372;2023-06-22T05:57:07;23.40;99.90
20288;DHT22;10303;51.960;8.372;2023-06-22T05:59:33;23.50;99.90
20288;DHT22;10303;51.960;8.372;2023-06-22T06:01:59;23.50;99.90
20288;DHT22;10303;51.960;8.372;2023-06-22T06:04:25;23.50;99.90
20288;DHT22;10303;51.960;8.372;2023-06-22T06:06:50;23.60;99.90
20288;DHT22;10303;51.960;8.372;2023-06-22T06:09:17;23.70;99.90
20288;DHT22;10303;51.960;8.372;2023-06-22T06:11:43;23.70;99.90
20288;DHT22;10303;51.960;8.372;2023-06-22T06:14:09;23.80;99.90
20288;DHT22;10303;51.960;8.372;2023-06-22T06:16:35;23.90;99.90
20288;DHT22;10303;51.960;8.372;2023-06-22T06:19:01;24.00;99.90
20288;DHT22;10303;51.960;8.372;2023-06-22T06:21:27;24.10;99.90
20288;DHT22;10303;51.960;8.372;2023-06-22T06:23:53;24.20;99.90
20288;DHT22;10303;51.960;8.372;2023-06-22T06:26:19;24.30;99.90
20288;DHT22;10303;51.960;8.372;2023-06-22T06:28:56;24.30;99.90
20288;DHT22;10303;51.960;8.372;2023-06-22T06:31:23;24.40;99.90
20288;DHT22;10303;51.960;8.372;2023-06-22T06:33:49;24.50;99.90
20288;DHT22;10303;51.960;8.372;2023-06-22T06:36:15;24.60;99.90
20288;DHT22;10303;51.960;8.372;2023-06-22T06:38:42;24.70;99.90
20288;DHT22;10303;51.960;8.372;2023-06-22T06:41:08;24.80;99.90
20288;DHT22;10303;51.960;8.372;2023-06-22T06:43:33;24.90;99.90
20288;DHT22;10303;51.960;8.372;2023-06-22T06:45:59;25.00;99.90
20288;DHT22;10303;51.960;8.372;2023-06-22T06:48:26;25.10;99.90
20288;DHT22;10303;51.960;8.372;2023-06-22T06:50:52;25.20;99.90
20288;DHT22;10303;51.960;8.372;2023-06-22T06:53:17;25.30;99.90
20288;DHT22;10303;51.960;8.372;2023-06-22T06:55:43;25.30;99.90
20288;DHT22;10303;51.960;8.372;2023-06-22T06:58:11;25.40;99.90
20288;DHT22;10303;51.960;8.372;2023-06-22T07:00:39;25.50;99.90
20288;DHT22;10303;51.960;8.372;2023-06-22T07:03:05;25.60;99.90
20288;DHT22;10303;51.960;8.372;2023-06-22T07:05:33;25.60;99.90
20288;DHT22;10303;51.960;8.372;2023-06-22T07:07:59;25.70;99.90
20288;DHT22;10303;51.960;8.372;2023-06-22T07:10:25;25.80;99.90
20288;DHT22;10303;51.960;8.372;2023-06-22T07:12:51;25.80;99.90
20288;DHT22;10303;51.960;8.372;2023-06-22T07:15:17;25.90;99.90
20288;DHT22;10303;51.960;8.372;2023-06-22T07:17:43;25.90;99.90
20288;DHT22;10303;51.960;8.372;2023-06-22T07:20:10;26.00;99.90
20288;DHT22;10303;51.960;8.372;2023-06-22T07:22:38;26.00;99.90
20288;DHT22;10303;51.960;8.372;2023-06-22T07:25:05;26.10;99.90
20288;DHT22;10303;51.960;8.372;2023-06-22T07:27:45;26.20;99.90
20288;DHT22;10303;51.960;8.372;2023-06-22T07:30:22;26.20;99.90
20288;DHT22;10303;51.960;8.372;2023-06-22T07:32:48;26.30;99.90
20288;DHT22;10303;51.960;8.372;2023-06-22T07:35:14;26.30;99.90
20288;DHT22;10303;51.960;8.372;2023-06-22T07:37:42;26.40;99.90
20288;DHT22;10303;51.960;8.372;2023-06-22T07:40:08;26.50;99.90
20288;DHT22;10303;51.960;8.372;2023-06-22T07:42:35;26.50;99.90
20288;DHT22;10303;51.960;8.372;2023-06-22T07:45:03;26.60;99.90
20288;DHT22;10303;51.960;8.372;2023-06-22T07:47:30;26.70;99.90
20288;DHT22;10303;51.960;8.372;2023-06-22T07:49:58;26.70;99.90
20288;DHT22;10303;51.960;8.372;2023-06-22T07:52:30;26.80;99.90
20288;DHT22;10303;51.960;8.372;2023-06-22T07:54:56;26.90;99.90
20288;DHT22;10303;51.960;8.372;2023-06-22T07:57:22;26.90;99.90
20288;DHT22;10303;51.960;8.372;2023-06-22T07:59:48;27.00;99.90
20288;DHT22;10303;51.960;8.372;2023-06-22T08:02:14;27.10;99.90
20288;DHT22;10303;51.960;8.372;2023-06-22T08:04:41;27.10;99.90
20288;DHT22;10303;51.960;8.372;2023-06-22T08:07:07;27.20;99.90
20288;DHT22;10303;51.960;8.372;2023-06-22T08:09:33;27.20;99.90
20288;DHT22;10303;51.960;8.372;2023-06-22T08:12:00;27.30;99.90
20288;DHT22;10303;51.960;8.372;2023-06-22T08:14:26;27.30;99.90
20288;DHT22;10303;51.960;8.372;2023-06-22T08:16:52;27.40;99.90
20288;DHT22;10303;51.960;8.372;2023-06-22T08:19:18;27.40;99.90
20288;DHT22;10303;51.960;8.372;2023-06-22T08:21:44;27.50;99.90
20288;DHT22;10303;51.960;8.372;2023-06-22T08:24:10;27.60;99.90
20288;DHT22;10303;51.960;8.372;2023-06-22T08:26:36;27.60;99.90
20288;DHT22;10303;51.960;8.372;2023-06-22T08:29:05;27.70;99.90
20288;DHT22;10303;51.960;8.372;2023-06-22T08:31:31;27.80;99.90
20288;DHT22;10303;51.960;8.372;2023-06-22T08:33:59;27.80;99.90
20288;DHT22;10303;51.960;8.372;2023-06-22T08:36:25;27.90;99.90
20288;DHT22;10303;51.960;8.372;2023-06-22T08:38:54;28.00;99.90
20288;DHT22;10303;51.960;8.372;2023-06-22T08:41:29;28.10;99.90
20288;DHT22;10303;51.960;8.372;2023-06-22T08:43:55;28.30;99.90
20288;DHT22;10303;51.960;8.372;2023-06-22T08:46:21;28.40;99.90
20288;DHT22;10303;51.960;8.372;2023-06-22T08:48:49;28.50;99.90
20288;DHT22;10303;51.960;8.372;2023-06-22T08:51:16;28.70;99.90
20288;DHT22;10303;51.960;8.372;2023-06-22T08:53:42;28.80;99.90
20288;DHT22;10303;51.960;8.372;2023-06-22T08:56:10;29.00;99.90
20288;DHT22;10303;51.960;8.372;2023-06-22T08:58:36;29.10;99.90
20288;DHT22;10303;51.960;8.372;2023-06-22T09:01:02;29.20;99.90
20288;DHT22;10303;51.960;8.372;2023-06-22T09:03:28;29.30;99.90
20288;DHT22;10303;51.960;8.372;2023-06-22T09:05:54;29.40;99.90
20288;DHT22;10303;51.960;8.372;2023-06-22T09:08:21;29.50;99.90
20288;DHT22;10303;51.960;8.372;2023-06-22T09:10:47;29.60;99.90
20288;DHT22;10303;51.960;8.372;2023-06-22T09:13:12;29.70;99.90
20288;DHT22;10303;51.960;8.372;2023-06-22T09:15:38;29.80;99.90
20288;DHT22;10303;51.960;8.372;2023-06-22T09:18:04;29.90;99.90
20288;DHT22;10303;51.960;8.372;2023-06-22T09:20:30;29.90;99.90
20288;DHT22;10303;51.960;8.372;2023-06-22T09:22:56;30.10;99.90
20288;DHT22;10303;51.960;8.372;2023-06-22T09:25:22;30.10;99.90
20288;DHT22;10303;51.960;8.372;2023-06-22T09:27:48;30.20;99.90
20288;DHT22;10303;51.960;8.372;2023-06-22T09:30:14;30.30;99.90
20288;DHT22;10303;51.960;8.372;2023-06-22T09:32:40;30.40;99.90
20288;DHT22;10303;51.960;8.372;2023-06-22T09:35:06;30.50;99.90
20288;DHT22;10303;51.960;8.372;2023-06-22T09:37:33;30.60;99.90
20288;DHT22;10303;51.960;8.372;2023-06-22T09:40:00;30.80;99.90
20288;DHT22;10303;51.960;8.372;2023-06-22T09:42:25;30.90;99.90
20288;DHT22;10303;51.960;8.372;2023-06-22T09:44:52;30.90;99.90
20288;DHT22;10303;51.960;8.372;2023-06-22T09:47:18;31.10;99.90
20288;DHT22;10303;51.960;8.372;2023-06-22T09:49:43;31.30;99.90
20288;DHT22;10303;51.960;8.372;2023-06-22T09:52:09;31.50;99.90
20288;DHT22;10303;51.960;8.372;2023-06-22T09:54:37;31.60;99.90
20288;DHT22;10303;51.960;8.372;2023-06-22T09:57:03;31.80;99.90
20288;DHT22;10303;51.960;8.372;2023-06-22T09:59:29;32.00;99.90
20288;DHT22;10303;51.960;8.372;2023-06-22T10:01:55;32.10;99.90
20288;DHT22;10303;51.960;8.372;2023-06-22T10:04:21;32.30;99.90
20288;DHT22;10303;51.960;8.372;2023-06-22T10:06:47;32.50;99.90
20288;DHT22;10303;51.960;8.372;2023-06-22T10:09:13;32.60;99.90
20288;DHT22;10303;51.960;8.372;2023-06-22T10:11:39;32.80;99.40
20288;DHT22;10303;51.960;8.372;2023-06-22T10:14:05;32.90;98.60
20288;DHT22;10303;51.960;8.372;2023-06-22T10:16:32;33.00;97.40
20288;DHT22;10303;51.960;8.372;2023-06-22T10:18:58;33.10;97.80
20288;DHT22;10303;51.960;8.372;2023-06-22T10:21:25;33.20;97.90
20288;DHT22;10303;51.960;8.372;2023-06-22T10:23:52;33.40;97.60
20288;DHT22;10303;51.960;8.372;2023-06-22T10:26:18;33.50;97.50
20288;DHT22;10303;51.960;8.372;2023-06-22T10:28:44;33.80;97.10
20288;DHT22;10303;51.960;8.372;2023-06-22T10:31:10;33.90;96.60
20288;DHT22;10303;51.960;8.372;2023-06-22T10:33:36;34.10;96.40
20288;DHT22;10303;51.960;8.372;2023-06-22T10:36:03;34.30;96.60
20288;DHT22;10303;51.960;8.372;2023-06-22T10:38:30;34.50;96.30
20288;DHT22;10303;51.960;8.372;2023-06-22T10:40:56;34.70;95.40
20288;DHT22;10303;51.960;8.372;2023-06-22T10:43:21;34.90;94.60
20288;DHT22;10303;51.960;8.372;2023-06-22T10:45:47;35.00;93.60
20288;DHT22;10303;51.960;8.372;2023-06-22T10:48:13;35.00;92.90
20288;DHT22;10303;51.960;8.372;2023-06-22T10:50:39;35.00;92.40
20288;DHT22;10303;51.960;8.372;2023-06-22T10:53:05;34.90;91.60
20288;DHT22;10303;51.960;8.372;2023-06-22T10:55:31;34.90;90.90
20288;DHT22;10303;51.960;8.372;2023-06-22T10:57:57;34.90;90.80
20288;DHT22;10303;51.960;8.372;2023-06-22T11:00:23;34.80;90.70
20288;DHT22;10303;51.960;8.372;2023-06-22T11:02:49;34.70;90.80
20288;DHT22;10303;51.960;8.372;2023-06-22T11:05:15;34.60;90.20
20288;DHT22;10303;51.960;8.372;2023-06-22T11:07:42;34.50;90.10
20288;DHT22;10303;51.960;8.372;2023-06-22T11:10:09;34.50;90.30
20288;DHT22;10303;51.960;8.372;2023-06-22T11:12:36;34.40;90.30
20288;DHT22;10303;51.960;8.372;2023-06-22T11:15:02;34.40;90.50
20288;DHT22;10303;51.960;8.372;2023-06-22T11:17:28;34.40;90.70
20288;DHT22;10303;51.960;8.372;2023-06-22T11:19:54;34.30;90.10
20288;DHT22;10303;51.960;8.372;2023-06-22T11:22:20;34.40;90.30
20288;DHT22;10303;51.960;8.372;2023-06-22T11:24:46;34.40;90.10
20288;DHT22;10303;51.960;8.372;2023-06-22T11:27:12;34.40;89.10
20288;DHT22;10303;51.960;8.372;2023-06-22T11:29:38;34.40;87.60
20288;DHT22;10303;51.960;8.372;2023-06-22T11:32:06;34.40;87.70
20288;DHT22;10303;51.960;8.372;2023-06-22T11:34:33;34.30;86.90
20288;DHT22;10303;51.960;8.372;2023-06-22T11:36:59;34.30;85.80
20288;DHT22;10303;51.960;8.372;2023-06-22T11:39:25;34.20;85.40
20288;DHT22;10303;51.960;8.372;2023-06-22T11:41:51;34.00;85.40
20288;DHT22;10303;51.960;8.372;2023-06-22T11:44:17;33.90;84.80
20288;DHT22;10303;51.960;8.372;2023-06-22T11:46:43;33.80;84.90
20288;DHT22;10303;51.960;8.372;2023-06-22T11:49:09;33.70;85.10
20288;DHT22;10303;51.960;8.372;2023-06-22T11:51:35;33.60;84.60
20288;DHT22;10303;51.960;8.372;2023-06-22T11:54:01;33.50;85.20
20288;DHT22;10303;51.960;8.372;2023-06-22T11:56:27;33.40;85.30
20288;DHT22;10303;51.960;8.372;2023-06-22T11:58:53;33.40;86.10
20288;DHT22;10303;51.960;8.372;2023-06-22T12:01:19;33.30;86.60
20288;DHT22;10303;51.960;8.372;2023-06-22T12:03:46;33.20;86.90
20288;DHT22;10303;51.960;8.372;2023-06-22T12:06:13;33.20;87.50
20288;DHT22;10303;51.960;8.372;2023-06-22T12:08:39;33.20;87.40
20288;DHT22;10303;51.960;8.372;2023-06-22T12:11:05;33.10;87.00
20288;DHT22;10303;51.960;8.372;2023-06-22T12:13:31;33.00;87.00
20288;DHT22;10303;51.960;8.372;2023-06-22T12:15:57;33.00;87.00
20288;DHT22;10303;51.960;8.372;2023-06-22T12:18:23;32.90;87.20
20288;DHT22;10303;51.960;8.372;2023-06-22T12:20:49;32.80;87.30
20288;DHT22;10303;51.960;8.372;2023-06-22T12:23:15;32.70;87.00
20288;DHT22;10303;51.960;8.372;2023-06-22T12:25:41;32.60;87.10
20288;DHT22;10303;51.960;8.372;2023-06-22T12:28:07;32.50;87.80
20288;DHT22;10303;51.960;8.372;2023-06-22T12:30:34;32.50;88.70
20288;DHT22;10303;51.960;8.372;2023-06-22T12:33:00;32.30;88.90
20288;DHT22;10303;51.960;8.372;2023-06-22T12:35:26;32.20;89.20
20288;DHT22;10303;51.960;8.372;2023-06-22T12:37:52;32.10;90.00
20288;DHT22;10303;51.960;8.372;2023-06-22T12:40:18;32.00;90.30
20288;DHT22;10303;51.960;8.372;2023-06-22T12:42:45;31.80;90.20
20288;DHT22;10303;51.960;8.372;2023-06-22T12:45:11;31.70;90.50
20288;DHT22;10303;51.960;8.372;2023-06-22T12:47:37;31.60;90.60
20288;DHT22;10303;51.960;8.372;2023-06-22T12:50:04;31.50;90.90
20288;DHT22;10303;51.960;8.372;2023-06-22T12:52:31;31.30;91.00
20288;DHT22;10303;51.960;8.372;2023-06-22T12:55:00;31.20;91.30
20288;DHT22;10303;51.960;8.372;2023-06-22T12:57:26;31.10;91.60
20288;DHT22;10303;51.960;8.372;2023-06-22T12:59:52;31.00;91.70
20288;DHT22;10303;51.960;8.372;2023-06-22T13:02:18;30.80;91.80
20288;DHT22;10303;51.960;8.372;2023-06-22T13:04:44;30.60;92.10
20288;DHT22;10303;51.960;8.372;2023-06-22T13:07:10;30.50;92.30
20288;DHT22;10303;51.960;8.372;2023-06-22T13:09:36;30.40;92.60
20288;DHT22;10303;51.960;8.372;2023-06-22T13:12:03;30.30;93.00
20288;DHT22;10303;51.960;8.372;2023-06-22T13:14:29;30.20;93.20
20288;DHT22;10303;51.960;8.372;2023-06-22T13:16:55;30.00;93.90
20288;DHT22;10303;51.960;8.372;2023-06-22T13:19:21;29.90;94.60
20288;DHT22;10303;51.960;8.372;2023-06-22T13:21:47;29.80;95.30
20288;DHT22;10303;51.960;8.372;2023-06-22T13:24:13;29.70;95.10
20288;DHT22;10303;51.960;8.372;2023-06-22T13:26:39;29.60;95.40
20288;DHT22;10303;51.960;8.372;2023-06-22T13:29:06;29.50;95.60
20288;DHT22;10303;51.960;8.372;2023-06-22T13:31:31;29.30;95.70
20288;DHT22;10303;51.960;8.372;2023-06-22T13:33:58;29.20;95.90
20288;DHT22;10303;51.960;8.372;2023-06-22T13:36:23;29.10;96.10
20288;DHT22;10303;51.960;8.372;2023-06-22T13:38:49;29.00;96.30
20288;DHT22;10303;51.960;8.372;2023-06-22T13:41:15;28.90;96.50
20288;DHT22;10303;51.960;8.372;2023-06-22T13:43:41;28.80;96.80
20288;DHT22;10303;51.960;8.372;2023-06-22T13:46:08;28.60;97.10
20288;DHT22;10303;51.960;8.372;2023-06-22T13:48:34;28.50;97.70
20288;DHT22;10303;51.960;8.372;2023-06-22T13:51:00;28.40;98.00
20288;DHT22;10303;51.960;8.372;2023-06-22T13:53:26;28.30;98.30
20288;DHT22;10303;51.960;8.372;2023-06-22T13:55:52;28.20;98.50
20288;DHT22;10303;51.960;8.372;2023-06-22T13:58:18;28.10;98.70
20288;DHT22;10303;51.960;8.372;2023-06-22T14:00:45;28.00;98.90
20288;DHT22;10303;51.960;8.372;2023-06-22T14:03:13;27.90;99.20
20288;DHT22;10303;51.960;8.372;2023-06-22T14:05:42;27.80;99.70
20288;DHT22;10303;51.960;8.372;2023-06-22T14:08:09;27.70;99.80
20288;DHT22;10303;51.960;8.372;2023-06-22T14:10:35;27.60;99.90
20288;DHT22;10303;51.960;8.372;2023-06-22T14:13:01;27.50;99.90
20288;DHT22;10303;51.960;8.372;2023-06-22T14:15:27;27.40;99.90
20288;DHT22;10303;51.960;8.372;2023-06-22T14:17:53;27.40;99.90
20288;DHT22;10303;51.960;8.372;2023-06-22T14:20:19;27.20;99.90
20288;DHT22;10303;51.960;8.372;2023-06-22T14:22:46;27.20;99.90
20288;DHT22;10303;51.960;8.372;2023-06-22T14:25:12;27.10;99.90
20288;DHT22;10303;51.960;8.372;2023-06-22T14:27:38;27.00;99.90
20288;DHT22;10303;51.960;8.372;2023-06-22T14:30:05;27.00;99.90
20288;DHT22;10303;51.960;8.372;2023-06-22T14:32:31;26.90;99.90
20288;DHT22;10303;51.960;8.372;2023-06-22T14:34:57;26.80;99.90
20288;DHT22;10303;51.960;8.372;2023-06-22T14:37:23;26.70;99.90
20288;DHT22;10303;51.960;8.372;2023-06-22T14:39:49;26.70;99.90
20288;DHT22;10303;51.960;8.372;2023-06-22T14:42:15;26.60;99.90
20288;DHT22;10303;51.960;8.372;2023-06-22T14:44:41;26.60;99.90
20288;DHT22;10303;51.960;8.372;2023-06-22T14:47:09;26.50;99.90
20288;DHT22;10303;51.960;8.372;2023-06-22T14:49:35;26.50;99.90
20288;DHT22;10303;51.960;8.372;2023-06-22T14:52:02;26.40;99.90
20288;DHT22;10303;51.960;8.372;2023-06-22T14:54:29;26.40;99.90
20288;DHT22;10303;51.960;8.372;2023-06-22T14:56:55;26.40;99.90
20288;DHT22;10303;51.960;8.372;2023-06-22T14:59:21;26.40;99.90
20288;DHT22;10303;51.960;8.372;2023-06-22T15:01:47;26.40;99.90
20288;DHT22;10303;51.960;8.372;2023-06-22T15:04:13;26.40;99.90
20288;DHT22;10303;51.960;8.372;2023-06-22T15:06:39;26.40;99.90
20288;DHT22;10303;51.960;8.372;2023-06-22T15:09:06;26.50;99.90
20288;DHT22;10303;51.960;8.372;2023-06-22T15:11:33;26.50;99.90
20288;DHT22;10303;51.960;8.372;2023-06-22T15:13:59;26.50;99.90
20288;DHT22;10303;51.960;8.372;2023-06-22T15:16:26;26.50;99.90
20288;DHT22;10303;51.960;8.372;2023-06-22T15:18:52;26.50;99.90
20288;DHT22;10303;51.960;8.372;2023-06-22T15:21:18;26.60;99.90
20288;DHT22;10303;51.960;8.372;2023-06-22T15:23:44;26.60;99.90
20288;DHT22;10303;51.960;8.372;2023-06-22T15:26:10;26.60;99.90
20288;DHT22;10303;51.960;8.372;2023-06-22T15:28:36;26.60;99.90
20288;DHT22;10303;51.960;8.372;2023-06-22T15:31:03;26.60;99.90
20288;DHT22;10303;51.960;8.372;2023-06-22T15:33:30;26.70;99.90
20288;DHT22;10303;51.960;8.372;2023-06-22T15:35:58;26.70;99.90
20288;DHT22;10303;51.960;8.372;2023-06-22T15:38:29;26.70;99.90
20288;DHT22;10303;51.960;8.372;2023-06-22T15:40:56;26.70;99.90